createdAt,value
2022-09-28T00:02:06.109Z,13.36
2022-09-28T00:04:39.891Z,13.37
2022-09-28T00:07:14.804Z,13.37
2022-09-28T00:09:48.405Z,13.36
2022-09-28T00:12:23.982Z,13.37
2022-09-28T00:14:57.548Z,13.35
2022-09-28T00:17:30.987Z,13.35
2022-09-28T00:20:06.088Z,13.35
2022-09-28T00:22:41.273Z,13.35
2022-09-28T00:25:17.063Z,13.37
2022-09-28T00:27:51.882Z,13.37
2022-09-28T00:30:25.609Z,13.38
2022-09-28T00:33:03.983Z,13.40
2022-09-28T00:35:46.967Z,13.40
2022-09-28T00:38:32.910Z,13.41
2022-09-28T00:41:22.168Z,13.38
2022-09-28T00:44:35.387Z,13.39
2022-09-28T00:47:32.019Z,13.35
2022-09-28T00:50:18.947Z,13.32
2022-09-28T00:52:57.565Z,13.29
2022-09-28T00:55:45.837Z,13.29
2022-09-28T00:58:28.364Z,13.25
2022-09-28T01:01:16.690Z,13.20
2022-09-28T01:03:55.655Z,13.16
2022-09-28T01:06:34.690Z,13.17
2022-09-28T01:09:12.491Z,13.14
2022-09-28T01:11:48.052Z,13.10
2022-09-28T01:14:22.957Z,13.06
2022-09-28T01:17:06.034Z,13.03
2022-09-28T01:20:28.347Z,13.02
2022-09-28T01:23:26.394Z,12.96
2022-09-28T01:26:31.597Z,12.86
2022-09-28T01:29:12.558Z,12.79
2022-09-28T01:31:51.467Z,12.73
2022-09-28T01:34:30.311Z,12.67
2022-09-28T01:37:06.444Z,12.64
2022-09-28T01:39:44.217Z,12.58
2022-09-28T01:42:23.641Z,12.54
2022-09-28T01:45:04.037Z,12.52
2022-09-28T01:47:41.616Z,12.47
2022-09-28T01:50:19.752Z,12.43
2022-09-28T01:52:56.701Z,12.39
2022-09-28T01:55:35.668Z,12.34
2022-09-28T01:58:16.847Z,12.31
2022-09-28T02:00:55.821Z,12.29
2022-09-28T02:03:36.148Z,12.28
2022-09-28T02:06:16.282Z,12.27
2022-09-28T02:08:54.090Z,12.24
2022-09-28T02:11:37.424Z,12.22
2022-09-28T02:14:17.226Z,12.21
2022-09-28T02:16:55.587Z,12.19
2022-09-28T02:19:35.254Z,12.18
2022-09-28T02:22:23.483Z,12.17
2022-09-28T02:25:04.924Z,12.19
2022-09-28T02:27:44.490Z,12.18
2022-09-28T02:30:20.361Z,12.17
2022-09-28T02:32:58.507Z,12.14
2022-09-28T02:35:34.119Z,12.13
2022-09-28T02:38:07.673Z,12.13
2022-09-28T02:40:42.367Z,12.10
2022-09-28T02:43:23.932Z,12.07
2022-09-28T02:46:10.636Z,12.07
2022-09-28T02:49:20.516Z,12.04
2022-09-28T02:52:15.308Z,12.02
2022-09-28T02:55:05.951Z,11.97
2022-09-28T02:57:49.541Z,11.95
2022-09-28T03:00:25.354Z,11.92
2022-09-28T03:03:10.295Z,11.89
2022-09-28T03:05:52.066Z,11.88
2022-09-28T03:08:31.441Z,11.88
2022-09-28T03:11:11.060Z,11.88
2022-09-28T03:13:45.333Z,11.92
2022-09-28T03:16:21.175Z,11.90
2022-09-28T03:18:57.655Z,11.88
2022-09-28T03:21:31.251Z,11.88
2022-09-28T03:24:06.118Z,11.89
2022-09-28T03:26:39.935Z,11.88
2022-09-28T03:29:13.728Z,11.88
2022-09-28T03:31:49.379Z,11.90
2022-09-28T03:34:26.905Z,11.90
2022-09-28T03:37:01.166Z,11.88
2022-09-28T03:39:34.789Z,11.87
2022-09-28T03:42:08.560Z,11.83
2022-09-28T03:44:45.721Z,11.81
2022-09-28T03:47:19.771Z,11.77
2022-09-28T03:49:54.742Z,11.66
2022-09-28T03:52:28.358Z,11.56
2022-09-28T03:55:01.953Z,11.53
2022-09-28T03:57:35.586Z,11.46
2022-09-28T04:00:10.635Z,11.45
2022-09-28T04:02:50.018Z,11.42
2022-09-28T04:05:25.060Z,11.40
2022-09-28T04:07:59.067Z,11.39
2022-09-28T04:10:33.668Z,11.38
2022-09-28T04:13:07.434Z,11.38
2022-09-28T04:15:40.893Z,11.45
2022-09-28T04:18:14.573Z,11.31
2022-09-28T04:21:20.783Z,11.18
2022-09-28T04:24:03.373Z,11.10
2022-09-28T04:26:36.983Z,11.05
2022-09-28T04:29:16.336Z,11.03
2022-09-28T04:32:01.514Z,10.98
2022-09-28T04:34:45.527Z,10.96
2022-09-28T04:37:20.198Z,11.05
2022-09-28T04:39:53.833Z,10.92
2022-09-28T04:42:27.561Z,10.86
2022-09-28T04:45:01.142Z,10.93
2022-09-28T04:47:35.188Z,10.74
2022-09-28T04:50:26.193Z,10.67
2022-09-28T04:53:19.599Z,10.62
2022-09-28T04:56:00.033Z,10.58
2022-09-28T04:58:35.594Z,10.51
2022-09-28T05:01:11.926Z,10.50
2022-09-28T05:04:05.631Z,10.47
2022-09-28T05:06:39.112Z,10.45
2022-09-28T05:09:15.108Z,10.42
2022-09-28T05:11:50.998Z,10.42
2022-09-28T05:14:25.942Z,10.42
2022-09-28T05:16:59.587Z,10.44
2022-09-28T05:19:34.993Z,10.44
2022-09-28T05:22:15.005Z,10.43
2022-09-28T05:24:55.089Z,10.45
2022-09-28T05:27:30.714Z,10.46
2022-09-28T05:30:12.720Z,10.50
2022-09-28T05:33:06.905Z,10.57
2022-09-28T05:36:03.466Z,10.63
2022-09-28T05:38:37.206Z,10.71
2022-09-28T05:41:12.372Z,10.80
2022-09-28T05:43:47.036Z,10.88
2022-09-28T05:46:21.978Z,10.96
2022-09-28T05:48:55.762Z,11.06
2022-09-28T05:51:32.250Z,11.18
2022-09-28T05:54:06.484Z,11.31
2022-09-28T05:56:44.177Z,11.43
2022-09-28T05:59:17.951Z,11.56
2022-09-28T06:01:51.497Z,11.69
2022-09-28T06:04:25.142Z,11.81
2022-09-28T06:06:58.788Z,12.07
2022-09-28T06:09:33.038Z,12.08
2022-09-28T06:12:20.175Z,12.17
2022-09-28T06:15:02.539Z,12.26
2022-09-28T06:17:36.082Z,12.31
2022-09-28T06:20:48.006Z,12.39
2022-09-28T06:23:23.001Z,12.47
2022-09-28T06:25:56.328Z,12.64
2022-09-28T06:28:31.787Z,12.66
2022-09-28T06:31:05.635Z,12.74
2022-09-28T06:33:53.021Z,12.78
2022-09-28T06:36:27.315Z,12.81
2022-09-28T06:39:00.611Z,12.90
2022-09-28T06:41:35.417Z,12.93
2022-09-28T06:44:20.738Z,13.03
2022-09-28T06:47:22.473Z,13.18
2022-09-28T06:50:21.713Z,13.36
2022-09-28T06:53:18.922Z,13.60
2022-09-28T06:56:32.566Z,13.92
2022-09-28T06:59:06.537Z,14.20
2022-09-28T07:01:43.014Z,14.34
2022-09-28T07:04:29.499Z,14.52
2022-09-28T07:07:21.766Z,14.65
2022-09-28T07:10:13.037Z,14.77
2022-09-28T07:13:42.875Z,14.88
2022-09-28T07:16:14.222Z,15.10
2022-09-28T07:18:57.558Z,15.51
2022-09-28T07:21:31.232Z,15.72
2022-09-28T07:24:12.623Z,16.01
2022-09-28T07:27:06.368Z,16.32
2022-09-28T07:30:12.641Z,16.74
2022-09-28T07:33:25.634Z,17.05
2022-09-28T07:36:19.074Z,17.09
2022-09-28T07:38:52.888Z,17.22
2022-09-28T07:41:32.751Z,17.51
2022-09-28T07:44:08.736Z,17.92
2022-09-28T07:46:45.248Z,18.38
2022-09-28T07:49:28.747Z,18.99
2022-09-28T07:52:29.051Z,19.86
2022-09-28T07:55:16.484Z,20.81
2022-09-28T07:57:56.785Z,21.81
2022-09-28T08:01:10.788Z,22.91
2022-09-28T08:03:48.889Z,23.88
2022-09-28T08:06:26.032Z,24.68
2022-09-28T08:09:02.182Z,25.46
2022-09-28T08:12:10.341Z,26.54
2022-09-28T08:14:52.932Z,26.56
2022-09-28T08:17:57.982Z,27.14
2022-09-28T08:20:53.270Z,27.91
2022-09-28T08:23:26.876Z,28.07
2022-09-28T08:26:05.924Z,27.68
2022-09-28T08:28:40.555Z,27.17
2022-09-28T08:31:45.458Z,26.85
2022-09-28T08:34:42.879Z,26.80
2022-09-28T08:37:38.288Z,26.74
2022-09-28T08:41:12.489Z,26.88
2022-09-28T08:44:40.698Z,27.05
2022-09-28T08:47:42.049Z,26.41
2022-09-28T08:50:50.448Z,26.59
2022-09-28T08:53:46.093Z,27.61
2022-09-28T08:56:33.959Z,29.00
2022-09-28T08:59:20.116Z,30.24
2022-09-28T09:02:03.783Z,30.01
2022-09-28T09:04:45.720Z,29.83
2022-09-28T09:07:54.323Z,28.88
2022-09-28T09:15:18.177Z,26.50
2022-09-28T09:18:10.702Z,25.08
2022-09-28T09:20:58.711Z,25.59
2022-09-28T09:24:01.348Z,25.58
2022-09-28T09:26:39.396Z,24.70
2022-09-28T09:29:36.521Z,23.77
2022-09-28T09:32:29.114Z,22.91
2022-09-28T09:35:16.617Z,22.91
2022-09-28T09:38:33.776Z,23.54
2022-09-28T09:41:43.571Z,24.30
2022-09-28T09:44:59.167Z,23.73
2022-09-28T09:47:57.906Z,22.94
2022-09-28T09:50:39.568Z,22.00
2022-09-28T09:53:21.256Z,21.11
2022-09-28T09:55:57.595Z,20.39
2022-09-28T09:58:48.136Z,20.11
2022-09-28T10:01:40.080Z,22.20
2022-09-28T10:04:32.603Z,24.66
2022-09-28T10:07:19.605Z,24.82
2022-09-28T10:09:58.723Z,24.40
2022-09-28T10:12:54.243Z,25.28
2022-09-28T10:15:30.113Z,27.16
2022-09-28T10:18:22.484Z,29.08
2022-09-28T10:21:15.567Z,28.12
2022-09-28T10:23:59.953Z,29.17
2022-09-28T10:26:41.429Z,29.36
2022-09-28T10:29:22.881Z,28.52
2022-09-28T10:31:56.459Z,27.37
2022-09-28T10:34:32.892Z,26.54
2022-09-28T10:37:13.896Z,27.74
2022-09-28T10:40:30.563Z,28.27
2022-09-28T10:43:24.579Z,27.55
2022-09-28T10:46:03.120Z,26.53
2022-09-28T10:48:49.780Z,25.39
2022-09-28T10:51:41.599Z,24.17
2022-09-28T10:54:21.457Z,23.17
2022-09-28T10:56:58.738Z,22.53
2022-09-28T10:59:43.806Z,23.51
2022-09-28T11:02:35.924Z,25.25
2022-09-28T11:05:30.537Z,26.01
2022-09-28T11:08:09.067Z,25.90
2022-09-28T11:11:04.132Z,25.17
2022-09-28T11:13:49.230Z,24.16
2022-09-28T11:16:31.998Z,23.07
2022-09-28T11:19:30.031Z,22.01
2022-09-28T11:22:21.540Z,21.19
2022-09-28T11:25:20.645Z,20.42
2022-09-28T11:28:04.748Z,19.75
2022-09-28T11:30:48.545Z,19.19
2022-09-28T11:33:45.053Z,18.73
2022-09-28T11:36:50.700Z,18.41
2022-09-28T11:39:30.941Z,18.12
2022-09-28T11:42:17.696Z,17.85
2022-09-28T11:45:00.424Z,17.65
2022-09-28T11:47:50.804Z,17.57
2022-09-28T11:50:46.805Z,17.55
2022-09-28T11:53:28.080Z,17.49
2022-09-28T11:56:15.799Z,17.70
2022-09-28T11:58:50.535Z,17.79
2022-09-28T12:01:35.792Z,17.70
2022-09-28T12:04:39.041Z,17.74
2022-09-28T12:07:20.815Z,18.02
2022-09-28T12:10:00.225Z,18.14
2022-09-28T12:12:38.662Z,18.55
2022-09-28T12:15:20.317Z,18.65
2022-09-28T12:17:58.833Z,18.56
2022-09-28T12:20:36.082Z,18.60
2022-09-28T12:23:16.060Z,19.15
2022-09-28T12:25:56.529Z,21.16
2022-09-28T12:28:39.650Z,22.78
2022-09-28T12:31:19.352Z,24.69
2022-09-28T12:33:59.554Z,26.16
2022-09-28T12:36:55.306Z,26.12
2022-09-28T12:39:57.539Z,25.79
2022-09-28T12:42:46.764Z,25.50
2022-09-28T12:45:38.865Z,25.12
2022-09-28T12:49:21.703Z,24.32
2022-09-28T12:51:51.589Z,23.38
2022-09-28T12:54:50.804Z,22.61
2022-09-28T12:57:58.448Z,22.48
2022-09-28T13:00:40.157Z,22.42
2022-09-28T13:03:58.690Z,22.23
2022-09-28T13:06:57.510Z,21.95
2022-09-28T13:09:39.021Z,21.64
2022-09-28T13:12:20.571Z,21.24
2022-09-28T13:15:48.698Z,20.80
2022-09-28T13:18:30.610Z,20.28
2022-09-28T13:21:16.232Z,19.89
2022-09-28T13:23:51.893Z,19.62
2022-09-28T13:26:34.167Z,19.40
2022-09-28T13:29:20.613Z,19.23
2022-09-28T13:32:06.361Z,18.94
2022-09-28T13:34:59.682Z,18.63
2022-09-28T13:37:38.512Z,18.30
2022-09-28T13:40:12.102Z,18.01
2022-09-28T13:43:19.383Z,17.83
2022-09-28T13:46:01.184Z,17.60
2022-09-28T13:48:48.731Z,17.48
2022-09-28T13:51:42.247Z,17.46
2022-09-28T13:54:30.764Z,17.48
2022-09-28T13:57:14.863Z,17.48
2022-09-28T13:59:59.510Z,17.41
2022-09-28T14:02:37.948Z,17.35
2022-09-28T14:05:52.938Z,17.37
2022-09-28T14:08:35.190Z,17.28
2022-09-28T14:11:45.084Z,17.18
2022-09-28T14:14:45.603Z,17.08
2022-09-28T14:17:58.399Z,17.02
2022-09-28T14:20:32.805Z,16.91
2022-09-28T14:23:47.854Z,16.89
2022-09-28T14:26:50.999Z,16.93
2022-09-28T14:29:29.892Z,16.94
2022-09-28T14:32:06.980Z,16.94
2022-09-28T14:34:49.271Z,16.93
2022-09-28T14:37:46.709Z,16.87
2022-09-28T14:40:39.641Z,16.76
2022-09-28T14:43:37.844Z,16.71
2022-09-28T14:46:33.455Z,16.66
2022-09-28T14:49:54.812Z,16.59
2022-09-28T14:52:41.908Z,16.51
2022-09-28T14:55:19.133Z,16.47
2022-09-28T14:57:55.938Z,16.44
2022-09-28T15:00:32.211Z,16.38
2022-09-28T15:03:22.201Z,16.30
2022-09-28T15:05:55.991Z,16.19
2022-09-28T15:08:41.767Z,16.11
2022-09-28T15:11:22.878Z,16.01
2022-09-28T15:14:08.823Z,15.95
2022-09-28T15:16:43.868Z,15.86
2022-09-28T15:19:29.845Z,15.79
2022-09-28T15:22:03.602Z,15.72
2022-09-28T15:24:38.572Z,15.67
2022-09-28T15:27:19.268Z,15.62
2022-09-28T15:30:02.677Z,15.59
2022-09-28T15:32:37.803Z,15.52
2022-09-28T15:35:14.692Z,15.51
2022-09-28T15:37:52.156Z,15.47
2022-09-28T15:40:33.243Z,15.43
2022-09-28T15:43:23.760Z,15.38
2022-09-28T15:46:07.717Z,15.32
2022-09-28T15:48:52.101Z,15.27
2022-09-28T15:51:27.701Z,15.23
2022-09-28T15:54:04.558Z,15.23
2022-09-28T15:56:53.377Z,15.25
2022-09-28T15:59:33.024Z,15.20
2022-09-28T16:02:22.025Z,15.23
2022-09-28T16:04:59.141Z,15.21
2022-09-28T16:07:39.976Z,15.22
2022-09-28T16:10:33.736Z,15.22
2022-09-28T16:13:17.296Z,15.18
2022-09-28T16:16:00.432Z,15.17
2022-09-28T16:18:38.915Z,15.12
2022-09-28T16:21:45.408Z,15.06
2022-09-28T16:24:25.522Z,14.96
2022-09-28T16:27:01.731Z,14.93
2022-09-28T16:29:40.291Z,14.88
2022-09-28T16:32:38.590Z,14.87
2022-09-28T16:35:25.630Z,14.84
2022-09-28T16:38:12.106Z,14.83
2022-09-28T16:40:48.232Z,14.78
2022-09-28T16:43:27.105Z,14.77
2022-09-28T16:46:03.108Z,14.80
2022-09-28T16:48:48.823Z,14.82
2022-09-28T16:51:24.472Z,14.84
2022-09-28T16:54:30.374Z,14.84
2022-09-28T16:57:11.305Z,14.82
2022-09-28T16:59:44.834Z,14.79
2022-09-28T17:02:46.567Z,14.75
2022-09-28T17:05:21.372Z,14.66
2022-09-28T17:08:01.647Z,14.58
2022-09-28T17:11:02.486Z,14.48
2022-09-28T17:13:37.634Z,14.38
2022-09-28T17:16:13.012Z,14.43
2022-09-28T17:18:48.958Z,14.29
2022-09-28T17:21:22.721Z,14.23
2022-09-28T17:23:56.254Z,14.16
2022-09-28T17:26:33.603Z,14.09
2022-09-28T17:29:10.016Z,13.99
2022-09-28T17:31:45.234Z,13.86
2022-09-28T17:34:34.174Z,13.73
2022-09-28T17:37:15.667Z,13.63
2022-09-28T17:39:51.834Z,13.59
2022-09-28T17:42:26.890Z,13.56
2022-09-28T17:45:00.361Z,13.54
2022-09-28T17:47:34.510Z,13.52
2022-09-28T17:50:22.718Z,13.52
2022-09-28T17:52:58.090Z,13.43
2022-09-28T17:55:36.789Z,13.40
2022-09-28T17:58:17.890Z,13.36
2022-09-28T18:00:52.996Z,13.28
2022-09-28T18:03:28.498Z,13.20
2022-09-28T18:06:04.871Z,13.13
2022-09-28T18:08:38.978Z,13.08
2022-09-28T18:11:13.062Z,13.04
2022-09-28T18:13:47.970Z,12.98
2022-09-28T18:16:22.883Z,12.94
2022-09-28T18:18:57.738Z,12.89
2022-09-28T18:21:33.262Z,12.82
2022-09-28T18:24:07.093Z,12.77
2022-09-28T18:26:40.595Z,12.70
2022-09-28T18:29:15.497Z,12.63
2022-09-28T18:31:49.571Z,12.59
2022-09-28T18:34:23.243Z,12.55
2022-09-28T18:36:56.356Z,12.65
2022-09-28T18:39:30.565Z,12.54
2022-09-28T18:42:04.370Z,12.49
2022-09-28T18:44:39.016Z,12.55
2022-09-28T18:47:17.684Z,12.42
2022-09-28T18:49:54.085Z,12.38
2022-09-28T18:52:29.492Z,12.31
2022-09-28T18:55:03.019Z,12.28
2022-09-28T18:57:37.047Z,12.25
2022-09-28T19:00:14.889Z,12.20
2022-09-28T19:02:48.554Z,12.16
2022-09-28T19:05:21.845Z,12.21
2022-09-28T19:07:55.508Z,12.07
2022-09-28T19:10:29.035Z,11.99
2022-09-28T19:13:02.514Z,11.94
2022-09-28T19:15:38.482Z,11.88
2022-09-28T19:18:12.078Z,11.83
2022-09-28T19:20:45.608Z,11.76
2022-09-28T19:23:19.156Z,11.74
2022-09-28T19:25:54.196Z,11.72
2022-09-28T19:28:27.999Z,11.71
2022-09-28T19:31:03.371Z,11.84
2022-09-28T19:33:37.212Z,11.76
2022-09-28T19:36:11.248Z,11.86
2022-09-28T19:38:44.714Z,11.76
2022-09-28T19:41:43.481Z,11.72
2022-09-28T19:44:24.897Z,11.69
2022-09-28T19:47:04.316Z,11.63
2022-09-28T19:49:39.138Z,11.59
2022-09-28T19:52:17.262Z,11.53
2022-09-28T19:54:57.066Z,11.52
2022-09-28T19:57:32.919Z,11.48
2022-09-28T20:00:11.538Z,11.50
2022-09-28T20:02:46.594Z,11.52
2022-09-28T20:05:20.372Z,11.55
2022-09-28T20:07:53.725Z,11.69
2022-09-28T20:10:27.383Z,11.64
2022-09-28T20:13:00.711Z,11.76
2022-09-28T20:15:48.005Z,11.65
2022-09-28T20:18:27.703Z,11.66
2022-09-28T20:21:06.391Z,11.67
2022-09-28T20:23:40.815Z,11.69
2022-09-28T20:26:16.240Z,11.69
2022-09-28T20:28:50.071Z,11.72
2022-09-28T20:31:25.480Z,11.75
2022-09-28T20:34:17.939Z,11.78
2022-09-28T20:36:51.706Z,11.84
2022-09-28T20:39:26.841Z,11.88
2022-09-28T20:42:01.157Z,11.93
2022-09-28T20:44:35.123Z,11.95
2022-09-28T20:47:11.179Z,11.98
2022-09-28T20:49:46.553Z,12.10
2022-09-28T20:52:20.722Z,11.99
2022-09-28T20:54:55.657Z,11.97
2022-09-28T20:57:29.389Z,12.09
2022-09-28T21:00:03.358Z,11.98
2022-09-28T21:02:37.037Z,11.94
2022-09-28T21:05:12.120Z,11.90
2022-09-28T21:07:45.681Z,11.90
2022-09-28T21:10:19.278Z,11.88
2022-09-28T21:12:53.314Z,11.85
2022-09-28T21:15:26.911Z,11.84
2022-09-28T21:18:00.427Z,11.85
2022-09-28T21:20:35.713Z,11.84
2022-09-28T21:23:09.292Z,11.78
2022-09-28T21:25:45.619Z,11.72
2022-09-28T21:28:19.291Z,11.64
2022-09-28T21:30:53.295Z,11.55
2022-09-28T21:33:26.822Z,11.46
2022-09-28T21:36:04.106Z,11.41
2022-09-28T21:38:37.747Z,11.36
2022-09-28T21:41:11.780Z,11.29
2022-09-28T21:43:45.352Z,11.31
2022-09-28T21:46:19.100Z,11.14
2022-09-28T21:48:52.705Z,11.14
2022-09-28T21:51:31.171Z,10.96
2022-09-28T21:54:08.301Z,10.88
2022-09-28T21:56:47.607Z,10.81
2022-09-28T21:59:21.436Z,10.75
2022-09-28T22:01:54.804Z,10.82
2022-09-28T22:04:28.557Z,10.69
2022-09-28T22:07:03.368Z,10.77
2022-09-28T22:09:36.928Z,10.62
2022-09-28T22:12:10.821Z,10.59
2022-09-28T22:14:44.014Z,10.66
2022-09-28T22:17:21.957Z,10.57
2022-09-28T22:19:55.568Z,10.59
2022-09-28T22:22:32.874Z,10.57
2022-09-28T22:25:07.536Z,10.59
2022-09-28T22:27:43.366Z,10.58
2022-09-28T22:30:17.036Z,10.60
2022-09-28T22:32:50.287Z,10.73
2022-09-28T22:35:23.786Z,10.65
2022-09-28T22:38:00.985Z,10.64
2022-09-28T22:40:34.559Z,10.65
2022-09-28T22:43:08.253Z,10.66
2022-09-28T22:45:41.786Z,10.65
2022-09-28T22:48:15.688Z,10.65
2022-09-28T22:50:49.766Z,10.72
2022-09-28T22:53:25.056Z,10.65
2022-09-28T22:55:59.637Z,10.62
2022-09-28T22:58:33.531Z,10.59
2022-09-28T23:01:08.897Z,10.53
2022-09-28T23:03:42.933Z,10.52
2022-09-28T23:06:21.532Z,10.45
2022-09-28T23:08:56.571Z,10.40
2022-09-28T23:11:30.403Z,10.34
2022-09-28T23:14:04.214Z,10.43
2022-09-28T23:16:37.886Z,10.27
2022-09-28T23:19:11.618Z,10.22
2022-09-28T23:21:45.142Z,10.31
2022-09-28T23:24:26.266Z,10.17
2022-09-28T23:26:59.944Z,10.09
2022-09-28T23:29:33.499Z,10.06
2022-09-28T23:32:11.488Z,10.04
2022-09-28T23:34:45.173Z,10.03
2022-09-28T23:37:18.730Z,10.03
2022-09-28T23:39:53.890Z,10.05
2022-09-28T23:42:27.366Z,10.08
2022-09-28T23:45:00.929Z,10.08
2022-09-28T23:47:37.401Z,10.10
2022-09-28T23:50:11.134Z,10.08
2022-09-28T23:52:44.601Z,10.08
2022-09-28T23:55:19.921Z,10.07
2022-09-28T23:57:55.728Z,10.09
